createdAt,value
2023-12-30T00:01:01.501Z,5.36
2023-12-30T00:03:30.533Z,5.39
2023-12-30T00:05:58.322Z,5.42
2023-12-30T00:08:25.848Z,5.46
2023-12-30T00:10:54.759Z,5.48
2023-12-30T00:13:22.880Z,5.50
2023-12-30T00:15:50.498Z,5.51
2023-12-30T00:18:19.552Z,5.55
2023-12-30T00:20:47.441Z,5.58
2023-12-30T00:23:15.207Z,5.62
2023-12-30T00:25:44.305Z,5.67
2023-12-30T00:28:12.114Z,5.69
2023-12-30T00:30:39.977Z,5.70
2023-12-30T00:33:09.021Z,5.70
2023-12-30T00:35:36.988Z,5.71
2023-12-30T00:38:04.745Z,5.73
2023-12-30T00:40:33.641Z,5.77
2023-12-30T00:43:01.633Z,5.81
2023-12-30T00:45:32.127Z,5.85
2023-12-30T00:47:59.931Z,5.89
2023-12-30T00:50:27.660Z,5.90
2023-12-30T00:52:56.660Z,5.92
2023-12-30T00:55:24.324Z,5.94
2023-12-30T00:57:52.012Z,5.97
2023-12-30T01:00:22.606Z,5.99
2023-12-30T01:02:50.273Z,6.03
2023-12-30T01:05:18.061Z,6.09
2023-12-30T01:07:47.116Z,6.14
2023-12-30T01:10:15.131Z,6.19
2023-12-30T01:12:42.865Z,6.25
2023-12-30T01:15:11.638Z,6.30
2023-12-30T01:17:39.399Z,6.33
2023-12-30T01:20:09.307Z,6.35
2023-12-30T01:22:39.038Z,6.36
2023-12-30T01:25:06.739Z,6.35
2023-12-30T01:27:34.451Z,6.34
2023-12-30T01:30:03.476Z,6.34
2023-12-30T01:32:31.432Z,6.34
2023-12-30T01:34:59.019Z,6.36
2023-12-30T01:37:28.110Z,6.37
2023-12-30T01:39:55.934Z,6.38
2023-12-30T01:42:24.004Z,6.39
2023-12-30T01:44:53.122Z,6.39
2023-12-30T01:47:21.094Z,6.39
2023-12-30T01:49:48.658Z,6.39
2023-12-30T01:52:17.764Z,6.37
2023-12-30T01:54:45.690Z,6.36
2023-12-30T01:57:13.241Z,6.36
2023-12-30T01:59:42.028Z,6.38
2023-12-30T02:02:09.994Z,6.39
2023-12-30T02:04:37.946Z,6.38
2023-12-30T02:07:07.339Z,6.39
2023-12-30T02:09:35.053Z,6.40
2023-12-30T02:12:02.897Z,6.38
2023-12-30T02:14:31.899Z,6.36
2023-12-30T02:16:59.649Z,6.33
2023-12-30T02:19:27.696Z,6.34
2023-12-30T02:21:56.662Z,6.35
2023-12-30T02:24:24.378Z,6.36
2023-12-30T02:26:52.042Z,6.36
2023-12-30T02:29:20.824Z,6.36
2023-12-30T02:31:48.799Z,6.37
2023-12-30T02:34:16.746Z,6.39
2023-12-30T02:36:45.664Z,6.40
2023-12-30T02:39:13.517Z,6.40
2023-12-30T02:41:41.392Z,6.40
2023-12-30T02:44:10.268Z,6.39
2023-12-30T02:46:38.242Z,6.37
2023-12-30T02:49:06.133Z,6.35
2023-12-30T02:51:35.109Z,6.34
2023-12-30T02:54:02.758Z,6.33
2023-12-30T02:56:30.420Z,6.32
2023-12-30T02:58:59.313Z,6.29
2023-12-30T03:01:27.511Z,6.25
2023-12-30T03:03:57.651Z,6.21
2023-12-30T03:06:25.469Z,6.17
2023-12-30T03:08:53.068Z,6.12
2023-12-30T03:11:22.019Z,6.08
2023-12-30T03:13:49.586Z,6.05
2023-12-30T03:16:17.174Z,6.02
2023-12-30T03:18:46.214Z,5.97
2023-12-30T03:21:14.211Z,5.92
2023-12-30T03:23:41.852Z,5.84
2023-12-30T03:26:10.762Z,5.78
2023-12-30T03:28:38.784Z,5.72
2023-12-30T03:31:06.637Z,5.69
2023-12-30T03:33:35.608Z,5.70
2023-12-30T03:36:03.441Z,5.72
2023-12-30T03:38:31.007Z,5.73
2023-12-30T03:40:59.888Z,5.77
2023-12-30T03:43:27.787Z,5.79
2023-12-30T03:45:55.369Z,5.81
2023-12-30T03:48:24.323Z,5.80
2023-12-30T03:50:52.079Z,5.80
2023-12-30T03:53:19.781Z,5.76
2023-12-30T03:55:48.839Z,5.66
2023-12-30T03:58:16.569Z,5.58
2023-12-30T04:00:44.409Z,5.53
2023-12-30T04:03:13.873Z,5.51
2023-12-30T04:05:41.829Z,5.48
2023-12-30T04:08:11.967Z,5.47
2023-12-30T04:10:39.775Z,5.45
2023-12-30T04:13:07.860Z,5.43
2023-12-30T04:15:36.782Z,5.41
2023-12-30T04:18:04.796Z,5.39
2023-12-30T04:20:32.705Z,5.35
2023-12-30T04:23:02.716Z,5.34
2023-12-30T04:25:30.525Z,5.33
2023-12-30T04:28:00.595Z,5.31
2023-12-30T04:30:28.652Z,5.28
2023-12-30T04:32:56.528Z,5.25
2023-12-30T04:35:25.356Z,5.21
2023-12-30T04:37:53.213Z,5.18
2023-12-30T04:40:21.037Z,5.17
2023-12-30T04:42:50.100Z,5.17
2023-12-30T04:45:17.836Z,5.15
2023-12-30T04:47:45.623Z,5.16
2023-12-30T04:50:15.217Z,5.18
2023-12-30T04:52:43.086Z,5.17
2023-12-30T04:55:13.018Z,5.15
2023-12-30T04:57:40.744Z,5.13
2023-12-30T05:00:08.643Z,5.11
2023-12-30T05:02:37.637Z,5.07
2023-12-30T05:05:05.293Z,5.04
2023-12-30T05:07:33.244Z,5.02
2023-12-30T05:10:02.481Z,5.05
2023-12-30T05:12:30.636Z,5.11
2023-12-30T05:14:58.402Z,5.15
2023-12-30T05:17:27.290Z,5.21
2023-12-30T05:19:55.685Z,5.29
2023-12-30T05:22:25.788Z,5.35
2023-12-30T05:24:53.673Z,5.41
2023-12-30T05:27:21.508Z,5.47
2023-12-30T05:29:50.598Z,5.51
2023-12-30T05:32:18.452Z,5.57
2023-12-30T05:34:46.691Z,5.64
2023-12-30T05:37:15.682Z,5.71
2023-12-30T05:39:43.595Z,5.77
2023-12-30T05:42:11.449Z,5.83
2023-12-30T05:44:40.477Z,5.88
2023-12-30T05:47:08.219Z,5.91
2023-12-30T05:49:36.307Z,5.92
2023-12-30T05:52:05.393Z,5.91
2023-12-30T05:54:33.573Z,5.89
2023-12-30T05:57:01.433Z,5.89
2023-12-30T05:59:30.561Z,5.89
2023-12-30T06:01:58.313Z,5.92
2023-12-30T06:04:26.252Z,5.94
2023-12-30T06:06:55.458Z,5.95
2023-12-30T06:09:23.212Z,5.98
2023-12-30T06:11:50.984Z,5.98
2023-12-30T06:14:20.260Z,5.97
2023-12-30T06:16:48.132Z,5.95
2023-12-30T06:19:18.000Z,5.93
2023-12-30T06:21:47.441Z,5.93
2023-12-30T06:24:15.121Z,5.94
2023-12-30T06:26:43.067Z,5.95
2023-12-30T06:29:12.314Z,5.97
2023-12-30T06:31:40.294Z,5.99
2023-12-30T06:34:08.319Z,6.01
2023-12-30T06:36:39.253Z,6.03
2023-12-30T06:39:08.248Z,6.05
2023-12-30T06:41:37.849Z,6.04
2023-12-30T06:44:05.723Z,6.06
2023-12-30T06:46:33.645Z,6.07
2023-12-30T06:49:02.785Z,6.08
2023-12-30T06:51:30.921Z,6.08
2023-12-30T06:53:58.728Z,6.11
2023-12-30T06:56:27.984Z,6.13
2023-12-30T06:58:55.791Z,6.15
2023-12-30T07:01:26.017Z,6.15
2023-12-30T07:03:54.125Z,6.13
2023-12-30T07:06:21.940Z,6.13
2023-12-30T07:08:50.931Z,6.12
2023-12-30T07:11:18.804Z,6.11
2023-12-30T07:13:46.678Z,6.09
2023-12-30T07:16:15.703Z,6.09
2023-12-30T07:18:43.599Z,6.12
2023-12-30T07:21:11.489Z,6.19
2023-12-30T07:23:40.487Z,6.25
2023-12-30T07:26:08.349Z,6.31
2023-12-30T07:28:36.321Z,6.37
2023-12-30T07:31:05.513Z,6.39
2023-12-30T07:33:33.649Z,6.45
2023-12-30T07:36:01.756Z,6.54
2023-12-30T07:38:30.854Z,6.61
2023-12-30T07:40:58.621Z,6.64
2023-12-30T07:43:26.394Z,6.57
2023-12-30T07:45:55.716Z,6.49
2023-12-30T07:48:23.678Z,6.42
2023-12-30T07:50:51.520Z,6.37
2023-12-30T07:53:20.706Z,6.36
2023-12-30T07:55:48.779Z,6.39
2023-12-30T07:58:16.576Z,6.45
2023-12-30T08:00:45.667Z,6.53
2023-12-30T08:03:13.501Z,6.59
2023-12-30T08:05:41.281Z,6.63
2023-12-30T08:08:10.361Z,6.66
2023-12-30T08:10:38.212Z,6.70
2023-12-30T08:13:06.323Z,6.75
2023-12-30T08:15:35.885Z,6.84
2023-12-30T08:18:03.622Z,6.93
2023-12-30T08:20:31.555Z,7.03
2023-12-30T08:23:01.018Z,7.11
2023-12-30T08:25:29.073Z,7.20
2023-12-30T08:27:59.152Z,7.27
2023-12-30T08:30:27.030Z,7.35
2023-12-30T08:32:54.812Z,7.44
2023-12-30T08:35:24.032Z,7.52
2023-12-30T08:37:51.689Z,7.53
2023-12-30T08:40:19.407Z,7.33
2023-12-30T08:42:48.874Z,7.10
2023-12-30T08:45:16.529Z,6.95
2023-12-30T08:47:46.600Z,6.83
2023-12-30T08:50:14.530Z,6.74
2023-12-30T08:52:42.378Z,6.67
2023-12-30T08:55:11.619Z,6.63
2023-12-30T08:57:39.487Z,6.59
2023-12-30T09:00:07.474Z,6.56
2023-12-30T09:02:36.573Z,6.54
2023-12-30T09:05:04.165Z,6.49
2023-12-30T09:07:32.198Z,6.46
2023-12-30T09:10:01.618Z,6.42
2023-12-30T09:12:29.514Z,6.44
2023-12-30T09:14:59.649Z,6.48
2023-12-30T09:17:27.563Z,6.53
2023-12-30T09:19:55.332Z,6.60
2023-12-30T09:22:24.501Z,6.65
2023-12-30T09:24:52.331Z,6.70
2023-12-30T09:27:19.986Z,6.68
2023-12-30T09:29:48.962Z,6.64
2023-12-30T09:32:16.641Z,6.58
2023-12-30T09:34:44.894Z,6.52
2023-12-30T09:37:14.474Z,6.50
2023-12-30T09:39:42.180Z,6.53
2023-12-30T09:42:09.942Z,6.58
2023-12-30T09:44:38.843Z,6.63
2023-12-30T09:47:06.989Z,6.68
2023-12-30T09:49:34.921Z,6.74
2023-12-30T09:52:04.131Z,6.80
2023-12-30T09:54:42.216Z,6.81
2023-12-30T09:57:15.892Z,6.79
2023-12-30T09:59:43.651Z,6.76
2023-12-30T10:02:11.562Z,6.77
2023-12-30T10:04:40.971Z,6.86
2023-12-30T10:07:08.847Z,6.99
2023-12-30T10:09:36.869Z,7.14
2023-12-30T10:12:05.945Z,7.30
2023-12-30T10:14:33.931Z,7.42
2023-12-30T10:17:01.928Z,7.51
2023-12-30T10:19:31.009Z,7.57
2023-12-30T10:21:58.770Z,7.63
2023-12-30T10:24:26.616Z,7.65
2023-12-30T10:26:55.687Z,7.69
2023-12-30T10:29:23.935Z,7.76
2023-12-30T10:31:51.791Z,7.83
2023-12-30T10:34:21.098Z,7.89
2023-12-30T10:36:48.973Z,7.92
2023-12-30T10:39:19.123Z,7.93
2023-12-30T10:41:47.138Z,7.93
2023-12-30T10:44:14.965Z,7.90
2023-12-30T10:46:44.306Z,7.86
2023-12-30T10:49:12.459Z,7.82
2023-12-30T10:51:42.562Z,7.77
2023-12-30T10:54:10.429Z,7.71
2023-12-30T10:56:38.286Z,7.66
2023-12-30T10:59:07.298Z,7.60
2023-12-30T11:01:35.300Z,7.52
2023-12-30T11:04:03.298Z,7.46
2023-12-30T11:06:32.497Z,7.43
2023-12-30T11:09:00.397Z,7.42
2023-12-30T11:11:28.355Z,7.40
2023-12-30T11:13:57.488Z,7.42
2023-12-30T11:16:25.397Z,7.48
2023-12-30T11:18:53.191Z,7.59
2023-12-30T11:21:22.184Z,7.73
2023-12-30T11:23:49.826Z,7.90
2023-12-30T11:26:17.880Z,8.02
2023-12-30T11:28:46.952Z,8.07
2023-12-30T11:31:14.994Z,8.04
2023-12-30T11:33:43.173Z,7.96
2023-12-30T11:36:12.205Z,7.90
2023-12-30T11:38:40.189Z,7.86
2023-12-30T11:41:08.066Z,7.84
2023-12-30T11:43:37.421Z,7.83
2023-12-30T11:46:05.288Z,7.85
2023-12-30T11:48:33.641Z,7.85
2023-12-30T11:51:02.601Z,7.82
2023-12-30T11:53:30.474Z,7.78
2023-12-30T11:55:58.329Z,7.75
2023-12-30T11:58:27.478Z,7.72
2023-12-30T12:00:55.231Z,7.72
2023-12-30T12:03:23.055Z,7.73
2023-12-30T12:05:52.583Z,7.73
2023-12-30T12:08:20.324Z,7.72
2023-12-30T12:10:50.447Z,7.73
2023-12-30T12:13:18.613Z,7.74
2023-12-30T12:15:46.796Z,7.75
2023-12-30T12:18:16.342Z,7.76
2023-12-30T12:20:44.257Z,7.74
2023-12-30T12:23:12.048Z,7.73
2023-12-30T12:25:41.221Z,7.73
2023-12-30T12:28:09.693Z,7.74
2023-12-30T12:30:39.857Z,7.75
2023-12-30T12:33:07.772Z,7.77
2023-12-30T12:35:35.446Z,7.77
2023-12-30T12:38:04.533Z,7.77
2023-12-30T12:40:32.235Z,7.76
2023-12-30T12:43:00.796Z,7.75
2023-12-30T12:45:31.820Z,7.73
2023-12-30T12:47:59.640Z,7.74
2023-12-30T12:50:28.675Z,7.75
2023-12-30T12:52:56.430Z,7.76
2023-12-30T12:55:24.369Z,7.78
2023-12-30T12:57:53.628Z,7.79
2023-12-30T13:00:21.291Z,7.79
2023-12-30T13:02:49.207Z,7.77
2023-12-30T13:05:18.396Z,7.74
2023-12-30T13:07:46.495Z,7.71
2023-12-30T13:10:14.481Z,7.68
2023-12-30T13:12:43.573Z,7.67
2023-12-30T13:15:11.350Z,7.65
2023-12-30T13:17:39.261Z,7.64
2023-12-30T13:20:08.418Z,7.63
2023-12-30T13:22:36.384Z,7.61
2023-12-30T13:25:04.403Z,7.58
2023-12-30T13:27:33.630Z,7.54
2023-12-30T13:30:01.488Z,7.52
2023-12-30T13:32:29.456Z,7.51
2023-12-30T13:34:58.718Z,7.50
2023-12-30T13:37:26.743Z,7.50
2023-12-30T13:39:54.912Z,7.49
2023-12-30T13:42:24.138Z,7.47
2023-12-30T13:44:51.959Z,7.46
2023-12-30T13:47:19.935Z,7.43
2023-12-30T13:49:49.121Z,7.40
2023-12-30T13:52:17.247Z,7.36
2023-12-30T13:54:45.068Z,7.32
2023-12-30T13:57:15.113Z,7.27
2023-12-30T13:59:42.937Z,7.25
2023-12-30T14:02:13.105Z,7.22
2023-12-30T14:04:41.311Z,7.20
2023-12-30T14:07:09.370Z,7.18
2023-12-30T14:09:38.713Z,7.16
2023-12-30T14:12:07.110Z,7.13
2023-12-30T14:14:37.232Z,7.09
2023-12-30T14:17:05.093Z,7.04
2023-12-30T14:19:33.234Z,6.97
2023-12-30T14:22:02.422Z,6.92
2023-12-30T14:24:30.128Z,6.89
2023-12-30T14:26:58.156Z,6.86
2023-12-30T14:29:27.080Z,6.84
2023-12-30T14:31:54.957Z,6.81
2023-12-30T14:37:05.288Z,6.74
2023-12-30T14:39:32.877Z,6.70
2023-12-30T14:42:00.752Z,6.67
2023-12-30T14:44:29.851Z,6.63
2023-12-30T14:46:57.702Z,6.58
2023-12-30T14:49:25.609Z,6.54
2023-12-30T14:51:54.902Z,6.52
2023-12-30T14:54:22.724Z,6.50
2023-12-30T14:56:50.511Z,6.47
2023-12-30T14:59:19.949Z,6.44
2023-12-30T15:01:47.805Z,6.41
2023-12-30T15:04:18.217Z,6.37
2023-12-30T15:06:46.074Z,6.34
2023-12-30T15:09:13.822Z,6.31
2023-12-30T15:11:43.236Z,6.27
2023-12-30T15:14:11.305Z,6.27
2023-12-30T15:16:41.610Z,6.29
2023-12-30T15:19:09.824Z,6.30
2023-12-30T15:21:40.024Z,6.32
2023-12-30T15:24:08.093Z,6.34
2023-12-30T15:26:35.952Z,6.36
2023-12-30T15:29:05.031Z,6.37
2023-12-30T15:31:33.044Z,6.36
2023-12-30T15:34:01.001Z,6.34
2023-12-30T15:36:30.473Z,6.30
2023-12-30T15:38:58.250Z,6.27
2023-12-30T15:41:28.367Z,6.25
2023-12-30T15:43:56.262Z,6.23
2023-12-30T15:46:24.435Z,6.24
2023-12-30T15:48:53.759Z,6.26
2023-12-30T15:51:21.553Z,6.28
2023-12-30T15:53:49.131Z,6.30
2023-12-30T15:56:18.220Z,6.31
2023-12-30T15:58:46.523Z,6.32
2023-12-30T16:01:14.342Z,6.32
2023-12-30T16:03:43.384Z,6.32
2023-12-30T16:06:11.310Z,6.32
2023-12-30T16:08:39.186Z,6.30
2023-12-30T16:11:08.276Z,6.28
2023-12-30T16:13:35.953Z,6.26
2023-12-30T16:16:03.722Z,6.27
2023-12-30T16:18:33.155Z,6.28
2023-12-30T16:21:00.975Z,6.29
2023-12-30T16:23:30.902Z,6.29
2023-12-30T16:25:58.748Z,6.29
2023-12-30T16:28:26.486Z,6.27
2023-12-30T16:30:55.768Z,6.24
2023-12-30T16:33:23.926Z,6.23
2023-12-30T16:35:51.738Z,6.23
2023-12-30T16:38:20.739Z,6.25
2023-12-30T16:40:48.774Z,6.29
2023-12-30T16:43:16.586Z,6.32
2023-12-30T16:45:46.353Z,6.35
2023-12-30T16:48:15.041Z,6.39
2023-12-30T16:50:44.074Z,6.42
2023-12-30T16:53:11.939Z,6.43
2023-12-30T16:55:39.564Z,6.44
2023-12-30T16:58:08.701Z,6.43
2023-12-30T17:00:36.498Z,6.42
2023-12-30T17:03:04.873Z,6.41
2023-12-30T17:05:34.027Z,6.41
2023-12-30T17:08:01.778Z,6.41
2023-12-30T17:10:29.727Z,6.42
2023-12-30T17:12:58.906Z,6.43
2023-12-30T17:15:26.813Z,6.43
2023-12-30T17:17:54.410Z,6.43
2023-12-30T17:20:23.483Z,6.41
2023-12-30T17:22:51.015Z,6.40
2023-12-30T17:25:18.978Z,6.36
2023-12-30T17:27:48.513Z,6.32
2023-12-30T17:30:16.416Z,6.30
2023-12-30T17:32:46.448Z,6.28
2023-12-30T17:35:14.256Z,6.29
2023-12-30T17:37:41.994Z,6.28
2023-12-30T17:40:11.146Z,6.26
2023-12-30T17:42:39.082Z,6.24
2023-12-30T17:45:06.861Z,6.22
2023-12-30T17:47:35.844Z,6.17
2023-12-30T17:50:03.903Z,6.12
2023-12-30T17:52:31.615Z,6.07
2023-12-30T17:55:01.355Z,6.02
2023-12-30T17:57:29.227Z,5.97
2023-12-30T17:59:59.156Z,5.89
2023-12-30T18:02:26.990Z,5.82
2023-12-30T18:04:54.740Z,5.75
2023-12-30T18:07:23.917Z,5.66
2023-12-30T18:09:52.044Z,5.57
2023-12-30T18:12:19.705Z,5.50
2023-12-30T18:14:48.715Z,5.44
2023-12-30T18:17:16.579Z,5.42
2023-12-30T18:19:44.278Z,5.41
2023-12-30T18:22:13.472Z,5.42
2023-12-30T18:24:41.513Z,5.44
2023-12-30T18:27:11.821Z,5.45
2023-12-30T18:29:39.637Z,5.47
2023-12-30T18:32:07.791Z,5.48
2023-12-30T18:34:36.970Z,5.50
2023-12-30T18:37:04.847Z,5.52
2023-12-30T18:39:32.679Z,5.56
2023-12-30T18:42:01.662Z,5.61
2023-12-30T18:44:29.356Z,5.66
2023-12-30T18:46:57.130Z,5.69
2023-12-30T18:49:26.351Z,5.72
2023-12-30T18:51:54.196Z,5.73
2023-12-30T18:54:21.818Z,5.73
2023-12-30T18:56:50.920Z,5.72
2023-12-30T18:59:18.788Z,5.72
2023-12-30T19:01:46.751Z,5.73
2023-12-30T19:04:16.038Z,5.75
2023-12-30T19:06:44.133Z,5.77
2023-12-30T19:09:14.462Z,5.79
2023-12-30T19:11:42.544Z,5.79
2023-12-30T19:14:10.401Z,5.78
2023-12-30T19:16:39.390Z,5.75
2023-12-30T19:19:07.275Z,5.71
2023-12-30T19:21:34.922Z,5.66
2023-12-30T19:24:03.905Z,5.62
2023-12-30T19:26:31.700Z,5.62
2023-12-30T19:28:59.544Z,5.62
2023-12-30T19:31:28.648Z,5.63
2023-12-30T19:33:56.936Z,5.64
2023-12-30T19:36:27.424Z,5.65
2023-12-30T19:38:55.728Z,5.65
2023-12-30T19:41:25.742Z,5.63
2023-12-30T19:43:53.703Z,5.63
2023-12-30T19:46:21.487Z,5.64
2023-12-30T19:48:50.567Z,5.67
2023-12-30T19:51:18.436Z,5.69
2023-12-30T19:53:45.973Z,5.71
2023-12-30T19:56:15.780Z,5.73
2023-12-30T19:58:43.731Z,5.73
2023-12-30T20:01:11.577Z,5.73
2023-12-30T20:03:40.724Z,5.72
2023-12-30T20:06:08.739Z,5.71
2023-12-30T20:08:36.571Z,5.71
2023-12-30T20:11:05.877Z,5.72
2023-12-30T20:13:33.652Z,5.74
2023-12-30T20:16:01.963Z,5.76
2023-12-30T20:18:30.930Z,5.78
2023-12-30T20:20:58.842Z,5.80
2023-12-30T20:23:26.611Z,5.80
2023-12-30T20:25:55.826Z,5.79
2023-12-30T20:28:23.620Z,5.80
2023-12-30T20:30:51.485Z,5.78
2023-12-30T20:33:20.692Z,5.76
2023-12-30T20:35:48.496Z,5.75
2023-12-30T20:38:16.466Z,5.75
2023-12-30T20:40:47.066Z,5.75
2023-12-30T20:43:15.176Z,5.77
2023-12-30T20:45:44.466Z,5.80
2023-12-30T20:48:12.435Z,5.79
2023-12-30T20:50:42.568Z,5.79
2023-12-30T20:53:10.529Z,5.76
2023-12-30T20:55:40.896Z,5.72
2023-12-30T20:58:08.641Z,5.67
2023-12-30T21:00:36.824Z,5.64
2023-12-30T21:03:05.863Z,5.62
2023-12-30T21:05:33.696Z,5.60
2023-12-30T21:08:01.498Z,5.60
2023-12-30T21:10:30.577Z,5.59
2023-12-30T21:12:58.401Z,5.59
2023-12-30T21:15:26.261Z,5.59
2023-12-30T21:17:55.385Z,5.58
2023-12-30T21:20:23.295Z,5.56
2023-12-30T21:22:51.012Z,5.54
2023-12-30T21:25:26.600Z,5.55
2023-12-30T21:27:56.823Z,5.57
2023-12-30T21:30:24.481Z,5.58
2023-12-30T21:32:52.289Z,5.59
2023-12-30T21:35:21.347Z,5.61
2023-12-30T21:37:49.152Z,5.63
2023-12-30T21:40:17.111Z,5.62
2023-12-30T21:42:46.054Z,5.62
2023-12-30T21:45:13.730Z,5.59
2023-12-30T21:47:41.442Z,5.57
2023-12-30T21:50:11.042Z,5.56
2023-12-30T21:52:39.679Z,5.56
2023-12-30T21:55:09.001Z,5.56
2023-12-30T21:57:36.856Z,5.55
2023-12-30T22:00:04.620Z,5.54
2023-12-30T22:02:33.614Z,5.51
2023-12-30T22:05:01.676Z,5.48
2023-12-30T22:07:29.461Z,5.45
2023-12-30T22:09:58.719Z,5.42
2023-12-30T22:12:26.407Z,5.36
2023-12-30T22:14:54.161Z,5.28
2023-12-30T22:17:23.477Z,5.20
2023-12-30T22:19:51.480Z,5.11
2023-12-30T22:22:19.542Z,5.00
2023-12-30T22:24:48.613Z,4.90
2023-12-30T22:27:16.453Z,4.81
2023-12-30T22:29:44.133Z,4.73
2023-12-30T22:32:13.404Z,4.65
2023-12-30T22:34:41.115Z,4.56
2023-12-30T22:37:09.082Z,4.46
2023-12-30T22:39:37.939Z,4.39
2023-12-30T22:42:05.729Z,4.31
2023-12-30T22:44:36.079Z,4.24
2023-12-30T22:47:06.792Z,4.18
2023-12-30T22:49:34.790Z,4.13
2023-12-30T22:52:02.528Z,4.06
2023-12-30T22:54:31.591Z,3.97
2023-12-30T22:56:59.463Z,3.88
2023-12-30T22:59:27.238Z,3.80
2023-12-30T23:01:56.283Z,3.72
2023-12-30T23:04:24.141Z,3.66
2023-12-30T23:06:51.954Z,3.61
2023-12-30T23:09:21.075Z,3.55
2023-12-30T23:11:48.909Z,3.49
2023-12-30T23:14:17.067Z,3.42
2023-12-30T23:16:46.144Z,3.34
2023-12-30T23:19:14.085Z,3.26
2023-12-30T23:21:41.906Z,3.18
2023-12-30T23:24:10.992Z,3.11
2023-12-30T23:26:38.663Z,3.07
2023-12-30T23:29:06.515Z,3.02
2023-12-30T23:31:35.610Z,2.97
2023-12-30T23:34:03.634Z,2.91
2023-12-30T23:36:31.548Z,2.80
2023-12-30T23:39:00.752Z,2.69
2023-12-30T23:41:28.889Z,2.63
2023-12-30T23:43:56.485Z,2.59
2023-12-30T23:46:25.754Z,2.58
2023-12-30T23:48:53.722Z,2.57
2023-12-30T23:51:21.518Z,2.56
2023-12-30T23:53:50.292Z,2.52
2023-12-30T23:56:18.373Z,2.49
2023-12-30T23:58:46.347Z,2.45
